sensor_id;sensor_type;location;lat;lon;timestamp;P1;durP1;ratioP1;P2;durP2;ratioP2
52208;SDS011;38507;53.132;6.394;2022-07-01T00:01:07;4.72;;;1.20;;
52208;SDS011;38507;53.132;6.394;2022-07-01T00:03:33;6.88;;;1.25;;
52208;SDS011;38507;53.132;6.394;2022-07-01T00:05:59;3.50;;;1.02;;
52208;SDS011;38507;53.132;6.394;2022-07-01T00:08:25;6.07;;;1.33;;
52208;SDS011;38507;53.132;6.394;2022-07-01T00:10:50;2.17;;;1.10;;
52208;SDS011;38507;53.132;6.394;2022-07-01T00:13:16;3.97;;;0.90;;
52208;SDS011;38507;53.132;6.394;2022-07-01T00:15:41;3.67;;;1.20;;
52208;SDS011;38507;53.132;6.394;2022-07-01T00:18:07;5.38;;;1.17;;
52208;SDS011;38507;53.132;6.394;2022-07-01T00:20:33;7.97;;;1.10;;
52208;SDS011;38507;53.132;6.394;2022-07-01T00:22:58;5.18;;;1.23;;
52208;SDS011;38507;53.132;6.394;2022-07-01T00:25:24;4.03;;;1.02;;
52208;SDS011;38507;53.132;6.394;2022-07-01T00:27:49;4.85;;;1.25;;
52208;SDS011;38507;53.132;6.394;2022-07-01T00:30:15;3.72;;;1.00;;
52208;SDS011;38507;53.132;6.394;2022-07-01T00:32:41;5.05;;;1.10;;
52208;SDS011;38507;53.132;6.394;2022-07-01T00:35:07;4.38;;;1.20;;
52208;SDS011;38507;53.132;6.394;2022-07-01T00:37:34;3.15;;;0.95;;
52208;SDS011;38507;53.132;6.394;2022-07-01T00:40:00;4.95;;;1.20;;
52208;SDS011;38507;53.132;6.394;2022-07-01T00:42:25;4.07;;;1.00;;
52208;SDS011;38507;53.132;6.394;2022-07-01T00:44:51;3.67;;;0.95;;
52208;SDS011;38507;53.132;6.394;2022-07-01T00:47:17;3.25;;;0.93;;
52208;SDS011;38507;53.132;6.394;2022-07-01T00:49:42;3.25;;;1.13;;
52208;SDS011;38507;53.132;6.394;2022-07-01T00:52:09;4.00;;;0.88;;
52208;SDS011;38507;53.132;6.394;2022-07-01T00:54:36;2.30;;;0.95;;
52208;SDS011;38507;53.132;6.394;2022-07-01T00:57:06;5.70;;;1.30;;
52208;SDS011;38507;53.132;6.394;2022-07-01T00:59:34;5.72;;;1.00;;
52208;SDS011;38507;53.132;6.394;2022-07-01T01:02:00;8.38;;;1.27;;
52208;SDS011;38507;53.132;6.394;2022-07-01T01:04:26;2.90;;;1.00;;
52208;SDS011;38507;53.132;6.394;2022-07-01T01:06:52;3.05;;;1.15;;
52208;SDS011;38507;53.132;6.394;2022-07-01T01:09:17;3.25;;;1.30;;
52208;SDS011;38507;53.132;6.394;2022-07-01T01:11:43;1.90;;;0.98;;
52208;SDS011;38507;53.132;6.394;2022-07-01T01:14:09;2.67;;;1.10;;
52208;SDS011;38507;53.132;6.394;2022-07-01T01:16:35;7.47;;;1.35;;
52208;SDS011;38507;53.132;6.394;2022-07-01T01:19:06;4.75;;;1.10;;
52208;SDS011;38507;53.132;6.394;2022-07-01T01:21:34;3.08;;;1.17;;
52208;SDS011;38507;53.132;6.394;2022-07-01T01:24:00;3.80;;;1.10;;
52208;SDS011;38507;53.132;6.394;2022-07-01T01:26:26;2.63;;;0.93;;
52208;SDS011;38507;53.132;6.394;2022-07-01T01:28:52;4.22;;;1.00;;
52208;SDS011;38507;53.132;6.394;2022-07-01T01:31:26;2.65;;;0.90;;
52208;SDS011;38507;53.132;6.394;2022-07-01T01:33:58;1.95;;;0.80;;
52208;SDS011;38507;53.132;6.394;2022-07-01T01:36:24;4.53;;;0.90;;
52208;SDS011;38507;53.132;6.394;2022-07-01T01:38:49;3.45;;;1.10;;
52208;SDS011;38507;53.132;6.394;2022-07-01T01:41:15;1.58;;;0.73;;
52208;SDS011;38507;53.132;6.394;2022-07-01T01:43:41;7.43;;;1.00;;
52208;SDS011;38507;53.132;6.394;2022-07-01T01:46:06;4.25;;;0.80;;
52208;SDS011;38507;53.132;6.394;2022-07-01T01:48:32;1.38;;;0.80;;
52208;SDS011;38507;53.132;6.394;2022-07-01T01:50:57;2.10;;;0.77;;
52208;SDS011;38507;53.132;6.394;2022-07-01T01:53:23;6.15;;;0.80;;
52208;SDS011;38507;53.132;6.394;2022-07-01T01:55:49;4.10;;;1.00;;
52208;SDS011;38507;53.132;6.394;2022-07-01T01:58:15;3.63;;;1.05;;
52208;SDS011;38507;53.132;6.394;2022-07-01T02:00:41;3.65;;;1.58;;
52208;SDS011;38507;53.132;6.394;2022-07-01T02:03:07;7.28;;;1.17;;
52208;SDS011;38507;53.132;6.394;2022-07-01T02:05:33;5.07;;;1.08;;
52208;SDS011;38507;53.132;6.394;2022-07-01T02:08:01;2.47;;;1.15;;
52208;SDS011;38507;53.132;6.394;2022-07-01T02:10:27;2.42;;;1.02;;
52208;SDS011;38507;53.132;6.394;2022-07-01T02:12:53;5.43;;;1.30;;
52208;SDS011;38507;53.132;6.394;2022-07-01T02:15:18;2.10;;;1.25;;
52208;SDS011;38507;53.132;6.394;2022-07-01T02:17:44;3.67;;;1.42;;
52208;SDS011;38507;53.132;6.394;2022-07-01T02:20:10;4.97;;;1.60;;
52208;SDS011;38507;53.132;6.394;2022-07-01T02:22:39;6.07;;;1.38;;
52208;SDS011;38507;53.132;6.394;2022-07-01T02:25:07;5.53;;;1.58;;
52208;SDS011;38507;53.132;6.394;2022-07-01T02:27:33;3.30;;;1.33;;
52208;SDS011;38507;53.132;6.394;2022-07-01T02:29:59;3.88;;;1.60;;
52208;SDS011;38507;53.132;6.394;2022-07-01T02:32:24;3.35;;;1.65;;
52208;SDS011;38507;53.132;6.394;2022-07-01T02:34:50;2.65;;;1.73;;
52208;SDS011;38507;53.132;6.394;2022-07-01T02:37:16;7.07;;;2.22;;
52208;SDS011;38507;53.132;6.394;2022-07-01T02:39:42;5.25;;;1.83;;
52208;SDS011;38507;53.132;6.394;2022-07-01T02:42:07;4.38;;;1.95;;
52208;SDS011;38507;53.132;6.394;2022-07-01T02:44:48;5.95;;;1.90;;
52208;SDS011;38507;53.132;6.394;2022-07-01T02:47:14;4.30;;;2.03;;
52208;SDS011;38507;53.132;6.394;2022-07-01T02:49:43;3.45;;;2.00;;
52208;SDS011;38507;53.132;6.394;2022-07-01T02:52:08;4.47;;;2.08;;
52208;SDS011;38507;53.132;6.394;2022-07-01T02:54:34;7.85;;;2.55;;
52208;SDS011;38507;53.132;6.394;2022-07-01T02:57:00;3.45;;;2.25;;
52208;SDS011;38507;53.132;6.394;2022-07-01T02:59:26;9.48;;;3.03;;
52208;SDS011;38507;53.132;6.394;2022-07-01T03:01:51;5.55;;;2.38;;
52208;SDS011;38507;53.132;6.394;2022-07-01T03:04:17;5.88;;;2.20;;
52208;SDS011;38507;53.132;6.394;2022-07-01T03:06:43;6.03;;;2.35;;
52208;SDS011;38507;53.132;6.394;2022-07-01T03:09:09;4.90;;;2.10;;
52208;SDS011;38507;53.132;6.394;2022-07-01T03:11:35;6.15;;;2.30;;
52208;SDS011;38507;53.132;6.394;2022-07-01T03:14:01;6.38;;;2.83;;
52208;SDS011;38507;53.132;6.394;2022-07-01T03:16:26;5.95;;;2.05;;
52208;SDS011;38507;53.132;6.394;2022-07-01T03:18:52;3.92;;;2.13;;
52208;SDS011;38507;53.132;6.394;2022-07-01T03:21:18;4.47;;;2.13;;
52208;SDS011;38507;53.132;6.394;2022-07-01T03:23:44;4.50;;;2.08;;
52208;SDS011;38507;53.132;6.394;2022-07-01T03:26:10;9.30;;;2.67;;
52208;SDS011;38507;53.132;6.394;2022-07-01T03:28:35;4.10;;;2.30;;
52208;SDS011;38507;53.132;6.394;2022-07-01T03:31:01;5.97;;;2.40;;
52208;SDS011;38507;53.132;6.394;2022-07-01T03:33:27;5.90;;;2.47;;
52208;SDS011;38507;53.132;6.394;2022-07-01T03:35:53;5.85;;;2.60;;
52208;SDS011;38507;53.132;6.394;2022-07-01T03:38:19;5.60;;;3.13;;
52208;SDS011;38507;53.132;6.394;2022-07-01T03:40:45;4.88;;;2.47;;
52208;SDS011;38507;53.132;6.394;2022-07-01T03:43:11;5.95;;;3.08;;
52208;SDS011;38507;53.132;6.394;2022-07-01T03:45:36;5.80;;;3.22;;
52208;SDS011;38507;53.132;6.394;2022-07-01T03:48:04;6.38;;;3.03;;
52208;SDS011;38507;53.132;6.394;2022-07-01T03:50:30;7.53;;;3.30;;
52208;SDS011;38507;53.132;6.394;2022-07-01T03:52:55;5.93;;;3.03;;
52208;SDS011;38507;53.132;6.394;2022-07-01T03:55:40;4.38;;;3.10;;
52208;SDS011;38507;53.132;6.394;2022-07-01T03:58:06;5.57;;;2.97;;
52208;SDS011;38507;53.132;6.394;2022-07-01T04:00:33;6.30;;;3.33;;
52208;SDS011;38507;53.132;6.394;2022-07-01T04:03:00;7.32;;;3.33;;
52208;SDS011;38507;53.132;6.394;2022-07-01T04:05:26;4.72;;;3.25;;
52208;SDS011;38507;53.132;6.394;2022-07-01T04:07:52;6.35;;;3.00;;
52208;SDS011;38507;53.132;6.394;2022-07-01T04:10:17;5.90;;;3.53;;
52208;SDS011;38507;53.132;6.394;2022-07-01T04:12:43;7.25;;;3.30;;
52208;SDS011;38507;53.132;6.394;2022-07-01T04:15:09;6.38;;;3.22;;
52208;SDS011;38507;53.132;6.394;2022-07-01T04:17:35;5.13;;;3.00;;
52208;SDS011;38507;53.132;6.394;2022-07-01T04:20:01;9.40;;;3.90;;
52208;SDS011;38507;53.132;6.394;2022-07-01T04:22:28;7.00;;;3.63;;
52208;SDS011;38507;53.132;6.394;2022-07-01T04:25:01;4.53;;;3.05;;
52208;SDS011;38507;53.132;6.394;2022-07-01T04:27:29;6.30;;;4.28;;
52208;SDS011;38507;53.132;6.394;2022-07-01T04:29:55;5.45;;;4.13;;
52208;SDS011;38507;53.132;6.394;2022-07-01T04:32:21;12.48;;;4.57;;
52208;SDS011;38507;53.132;6.394;2022-07-01T04:34:47;9.55;;;3.95;;
52208;SDS011;38507;53.132;6.394;2022-07-01T04:37:13;8.57;;;4.30;;
52208;SDS011;38507;53.132;6.394;2022-07-01T04:39:38;7.10;;;4.30;;
52208;SDS011;38507;53.132;6.394;2022-07-01T04:42:05;7.82;;;4.10;;
52208;SDS011;38507;53.132;6.394;2022-07-01T04:44:32;8.60;;;4.82;;
52208;SDS011;38507;53.132;6.394;2022-07-01T04:46:59;8.30;;;4.47;;
52208;SDS011;38507;53.132;6.394;2022-07-01T04:49:26;7.90;;;4.78;;
52208;SDS011;38507;53.132;6.394;2022-07-01T04:51:52;8.48;;;5.43;;
52208;SDS011;38507;53.132;6.394;2022-07-01T04:54:18;9.13;;;6.85;;
52208;SDS011;38507;53.132;6.394;2022-07-01T04:56:43;15.90;;;8.68;;
52208;SDS011;38507;53.132;6.394;2022-07-01T04:59:10;14.88;;;9.52;;
52208;SDS011;38507;53.132;6.394;2022-07-01T05:01:36;16.80;;;10.13;;
52208;SDS011;38507;53.132;6.394;2022-07-01T05:04:02;16.00;;;10.32;;
52208;SDS011;38507;53.132;6.394;2022-07-01T05:06:27;16.63;;;10.25;;
52208;SDS011;38507;53.132;6.394;2022-07-01T05:08:53;18.67;;;11.30;;
52208;SDS011;38507;53.132;6.394;2022-07-01T05:11:19;17.25;;;11.60;;
52208;SDS011;38507;53.132;6.394;2022-07-01T05:13:44;16.27;;;11.70;;
52208;SDS011;38507;53.132;6.394;2022-07-01T05:16:10;22.17;;;12.20;;
52208;SDS011;38507;53.132;6.394;2022-07-01T05:18:36;19.90;;;12.50;;
52208;SDS011;38507;53.132;6.394;2022-07-01T05:21:21;18.80;;;12.98;;
52208;SDS011;38507;53.132;6.394;2022-07-01T05:24:05;20.10;;;13.63;;
52208;SDS011;38507;53.132;6.394;2022-07-01T05:26:32;26.40;;;15.23;;
52208;SDS011;38507;53.132;6.394;2022-07-01T05:28:57;23.50;;;16.52;;
52208;SDS011;38507;53.132;6.394;2022-07-01T05:31:23;26.17;;;15.57;;
52208;SDS011;38507;53.132;6.394;2022-07-01T05:33:49;22.75;;;15.88;;
52208;SDS011;38507;53.132;6.394;2022-07-01T05:36:14;24.70;;;15.93;;
52208;SDS011;38507;53.132;6.394;2022-07-01T05:38:41;23.27;;;16.65;;
52208;SDS011;38507;53.132;6.394;2022-07-01T05:41:07;23.73;;;18.20;;
52208;SDS011;38507;53.132;6.394;2022-07-01T05:43:33;28.17;;;17.63;;
52208;SDS011;38507;53.132;6.394;2022-07-01T05:45:59;23.15;;;17.33;;
52208;SDS011;38507;53.132;6.394;2022-07-01T05:48:25;27.08;;;18.90;;
52208;SDS011;38507;53.132;6.394;2022-07-01T05:50:51;28.17;;;18.30;;
52208;SDS011;38507;53.132;6.394;2022-07-01T05:53:17;25.80;;;17.98;;
52208;SDS011;38507;53.132;6.394;2022-07-01T05:55:43;29.33;;;20.17;;
52208;SDS011;38507;53.132;6.394;2022-07-01T05:58:12;27.88;;;19.70;;
52208;SDS011;38507;53.132;6.394;2022-07-01T06:00:39;28.15;;;19.90;;
52208;SDS011;38507;53.132;6.394;2022-07-01T06:03:07;27.60;;;19.70;;
52208;SDS011;38507;53.132;6.394;2022-07-01T06:05:33;28.55;;;20.10;;
52208;SDS011;38507;53.132;6.394;2022-07-01T06:07:58;34.78;;;19.42;;
52208;SDS011;38507;53.132;6.394;2022-07-01T06:10:24;32.53;;;21.88;;
52208;SDS011;38507;53.132;6.394;2022-07-01T06:12:50;30.13;;;20.63;;
52208;SDS011;38507;53.132;6.394;2022-07-01T06:15:15;30.77;;;21.23;;
52208;SDS011;38507;53.132;6.394;2022-07-01T06:17:41;28.50;;;21.05;;
52208;SDS011;38507;53.132;6.394;2022-07-01T06:20:07;30.65;;;20.55;;
52208;SDS011;38507;53.132;6.394;2022-07-01T06:22:34;27.95;;;21.67;;
52208;SDS011;38507;53.132;6.394;2022-07-01T06:25:00;30.73;;;20.52;;
52208;SDS011;38507;53.132;6.394;2022-07-01T06:27:27;30.25;;;21.27;;
52208;SDS011;38507;53.132;6.394;2022-07-01T06:29:53;31.02;;;20.30;;
52208;SDS011;38507;53.132;6.394;2022-07-01T06:32:19;27.98;;;20.60;;
52208;SDS011;38507;53.132;6.394;2022-07-01T06:34:44;26.95;;;21.02;;
52208;SDS011;38507;53.132;6.394;2022-07-01T06:37:10;31.38;;;21.27;;
52208;SDS011;38507;53.132;6.394;2022-07-01T06:39:36;28.80;;;21.30;;
52208;SDS011;38507;53.132;6.394;2022-07-01T06:42:02;29.30;;;19.80;;
52208;SDS011;38507;53.132;6.394;2022-07-01T06:44:27;32.42;;;20.65;;
52208;SDS011;38507;53.132;6.394;2022-07-01T06:46:53;32.60;;;20.90;;
52208;SDS011;38507;53.132;6.394;2022-07-01T06:49:19;31.00;;;20.80;;
52208;SDS011;38507;53.132;6.394;2022-07-01T06:51:44;33.25;;;21.70;;
52208;SDS011;38507;53.132;6.394;2022-07-01T06:54:10;29.30;;;21.10;;
52208;SDS011;38507;53.132;6.394;2022-07-01T06:56:36;28.75;;;21.20;;
52208;SDS011;38507;53.132;6.394;2022-07-01T06:59:02;27.77;;;20.95;;
52208;SDS011;38507;53.132;6.394;2022-07-01T07:01:28;30.25;;;22.08;;
52208;SDS011;38507;53.132;6.394;2022-07-01T07:03:54;30.45;;;22.02;;
52208;SDS011;38507;53.132;6.394;2022-07-01T07:06:21;29.58;;;21.48;;
52208;SDS011;38507;53.132;6.394;2022-07-01T07:08:47;32.13;;;21.52;;
52208;SDS011;38507;53.132;6.394;2022-07-01T07:11:13;31.20;;;21.65;;
52208;SDS011;38507;53.132;6.394;2022-07-01T07:13:40;29.33;;;21.60;;
52208;SDS011;38507;53.132;6.394;2022-07-01T07:16:06;28.55;;;21.38;;
52208;SDS011;38507;53.132;6.394;2022-07-01T07:18:32;31.17;;;21.48;;
52208;SDS011;38507;53.132;6.394;2022-07-01T07:20:58;26.35;;;20.17;;
52208;SDS011;38507;53.132;6.394;2022-07-01T07:23:24;27.38;;;21.20;;
52208;SDS011;38507;53.132;6.394;2022-07-01T07:25:49;26.27;;;19.92;;
52208;SDS011;38507;53.132;6.394;2022-07-01T07:28:15;28.73;;;20.95;;
52208;SDS011;38507;53.132;6.394;2022-07-01T07:30:41;28.40;;;19.88;;
52208;SDS011;38507;53.132;6.394;2022-07-01T07:33:07;28.38;;;21.15;;
52208;SDS011;38507;53.132;6.394;2022-07-01T07:35:32;24.83;;;19.77;;
52208;SDS011;38507;53.132;6.394;2022-07-01T07:37:58;26.23;;;19.77;;
52208;SDS011;38507;53.132;6.394;2022-07-01T07:40:24;23.33;;;19.02;;
52208;SDS011;38507;53.132;6.394;2022-07-01T07:42:50;26.73;;;19.38;;
52208;SDS011;38507;53.132;6.394;2022-07-01T07:45:16;24.75;;;20.52;;
52208;SDS011;38507;53.132;6.394;2022-07-01T07:47:43;25.85;;;21.42;;
52208;SDS011;38507;53.132;6.394;2022-07-01T07:50:19;30.75;;;21.00;;
52208;SDS011;38507;53.132;6.394;2022-07-01T07:52:46;27.50;;;20.27;;
52208;SDS011;38507;53.132;6.394;2022-07-01T07:55:11;23.17;;;19.48;;
52208;SDS011;38507;53.132;6.394;2022-07-01T07:57:38;23.60;;;18.95;;
52208;SDS011;38507;53.132;6.394;2022-07-01T08:00:06;25.55;;;19.05;;
52208;SDS011;38507;53.132;6.394;2022-07-01T08:02:33;25.08;;;18.27;;
52208;SDS011;38507;53.132;6.394;2022-07-01T08:04:59;23.38;;;18.25;;
52208;SDS011;38507;53.132;6.394;2022-07-01T08:07:25;23.73;;;18.02;;
52208;SDS011;38507;53.132;6.394;2022-07-01T08:09:50;22.98;;;16.45;;
52208;SDS011;38507;53.132;6.394;2022-07-01T08:12:16;21.33;;;16.88;;
52208;SDS011;38507;53.132;6.394;2022-07-01T08:14:42;17.85;;;14.63;;
52208;SDS011;38507;53.132;6.394;2022-07-01T08:17:08;22.98;;;13.40;;
52208;SDS011;38507;53.132;6.394;2022-07-01T08:19:33;16.60;;;12.80;;
52208;SDS011;38507;53.132;6.394;2022-07-01T08:21:59;18.27;;;13.70;;
52208;SDS011;38507;53.132;6.394;2022-07-01T08:24:25;19.98;;;14.13;;
52208;SDS011;38507;53.132;6.394;2022-07-01T08:26:50;19.63;;;14.32;;
52208;SDS011;38507;53.132;6.394;2022-07-01T08:29:16;20.63;;;12.57;;
52208;SDS011;38507;53.132;6.394;2022-07-01T08:31:42;19.13;;;12.48;;
52208;SDS011;38507;53.132;6.394;2022-07-01T08:34:08;19.02;;;12.45;;
52208;SDS011;38507;53.132;6.394;2022-07-01T08:36:34;15.93;;;12.25;;
52208;SDS011;38507;53.132;6.394;2022-07-01T08:39:00;17.33;;;12.65;;
52208;SDS011;38507;53.132;6.394;2022-07-01T08:41:26;15.40;;;11.75;;
52208;SDS011;38507;53.132;6.394;2022-07-01T08:43:51;18.85;;;11.23;;
52208;SDS011;38507;53.132;6.394;2022-07-01T08:46:17;11.80;;;9.23;;
52208;SDS011;38507;53.132;6.394;2022-07-01T08:48:43;10.77;;;8.05;;
52208;SDS011;38507;53.132;6.394;2022-07-01T08:51:09;17.08;;;9.93;;
52208;SDS011;38507;53.132;6.394;2022-07-01T08:53:35;14.20;;;9.75;;
52208;SDS011;38507;53.132;6.394;2022-07-01T08:56:01;14.40;;;9.60;;
52208;SDS011;38507;53.132;6.394;2022-07-01T08:58:48;13.68;;;9.75;;
52208;SDS011;38507;53.132;6.394;2022-07-01T09:01:21;15.18;;;9.68;;
52208;SDS011;38507;53.132;6.394;2022-07-01T09:03:50;10.80;;;8.75;;
52208;SDS011;38507;53.132;6.394;2022-07-01T09:06:21;14.07;;;8.50;;
52208;SDS011;38507;53.132;6.394;2022-07-01T09:08:48;15.25;;;9.40;;
52208;SDS011;38507;53.132;6.394;2022-07-01T09:11:15;10.10;;;7.75;;
52208;SDS011;38507;53.132;6.394;2022-07-01T09:13:42;14.02;;;7.78;;
52208;SDS011;38507;53.132;6.394;2022-07-01T09:16:12;14.48;;;8.23;;
52208;SDS011;38507;53.132;6.394;2022-07-01T09:18:39;12.80;;;6.68;;
52208;SDS011;38507;53.132;6.394;2022-07-01T09:21:09;11.93;;;5.95;;
52208;SDS011;38507;53.132;6.394;2022-07-01T09:23:38;10.73;;;5.15;;
52208;SDS011;38507;53.132;6.394;2022-07-01T09:26:04;9.15;;;4.32;;
52208;SDS011;38507;53.132;6.394;2022-07-01T09:28:30;9.20;;;3.72;;
52208;SDS011;38507;53.132;6.394;2022-07-01T09:30:56;13.07;;;4.28;;
52208;SDS011;38507;53.132;6.394;2022-07-01T09:33:23;10.27;;;4.25;;
52208;SDS011;38507;53.132;6.394;2022-07-01T09:35:51;8.23;;;4.47;;
52208;SDS011;38507;53.132;6.394;2022-07-01T09:38:20;8.00;;;5.03;;
52208;SDS011;38507;53.132;6.394;2022-07-01T09:40:48;10.48;;;5.53;;
52208;SDS011;38507;53.132;6.394;2022-07-01T09:45:51;11.88;;;4.28;;
52208;SDS011;38507;53.132;6.394;2022-07-01T09:48:25;11.30;;;5.53;;
52208;SDS011;38507;53.132;6.394;2022-07-01T09:50:52;9.98;;;4.40;;
52208;SDS011;38507;53.132;6.394;2022-07-01T09:53:18;9.40;;;3.97;;
52208;SDS011;38507;53.132;6.394;2022-07-01T09:55:44;9.40;;;4.47;;
52208;SDS011;38507;53.132;6.394;2022-07-01T09:58:10;6.95;;;3.90;;
52208;SDS011;38507;53.132;6.394;2022-07-01T10:00:36;11.35;;;3.70;;
52208;SDS011;38507;53.132;6.394;2022-07-01T10:03:03;6.45;;;3.13;;
52208;SDS011;38507;53.132;6.394;2022-07-01T10:05:31;9.45;;;2.97;;
52208;SDS011;38507;53.132;6.394;2022-07-01T10:14:11;9.07;;;3.72;;
52208;SDS011;38507;53.132;6.394;2022-07-01T10:16:38;8.95;;;3.75;;
52208;SDS011;38507;53.132;6.394;2022-07-01T10:21:45;11.23;;;4.03;;
52208;SDS011;38507;53.132;6.394;2022-07-01T10:24:15;9.88;;;4.30;;
52208;SDS011;38507;53.132;6.394;2022-07-01T10:26:42;10.60;;;4.10;;
52208;SDS011;38507;53.132;6.394;2022-07-01T10:31:59;9.57;;;3.80;;
52208;SDS011;38507;53.132;6.394;2022-07-01T10:34:37;8.23;;;3.75;;
52208;SDS011;38507;53.132;6.394;2022-07-01T10:37:05;7.88;;;3.60;;
52208;SDS011;38507;53.132;6.394;2022-07-01T10:42:28;6.53;;;3.05;;
52208;SDS011;38507;53.132;6.394;2022-07-01T10:45:20;9.20;;;4.18;;
52208;SDS011;38507;53.132;6.394;2022-07-01T10:47:46;6.07;;;2.30;;
52208;SDS011;38507;53.132;6.394;2022-07-01T10:50:13;6.07;;;1.23;;
52208;SDS011;38507;53.132;6.394;2022-07-01T10:53:00;6.63;;;1.15;;
52208;SDS011;38507;53.132;6.394;2022-07-01T10:55:46;2.47;;;0.73;;
52208;SDS011;38507;53.132;6.394;2022-07-01T10:58:13;3.08;;;0.70;;
52208;SDS011;38507;53.132;6.394;2022-07-01T11:00:43;1.90;;;0.52;;
52208;SDS011;38507;53.132;6.394;2022-07-01T11:05:43;1.52;;;0.50;;
52208;SDS011;38507;53.132;6.394;2022-07-01T11:08:11;1.00;;;0.40;;
52208;SDS011;38507;53.132;6.394;2022-07-01T11:10:37;1.25;;;0.47;;
52208;SDS011;38507;53.132;6.394;2022-07-01T11:13:04;1.85;;;0.50;;
52208;SDS011;38507;53.132;6.394;2022-07-01T11:15:30;1.85;;;0.75;;
52208;SDS011;38507;53.132;6.394;2022-07-01T11:17:57;2.20;;;0.40;;
52208;SDS011;38507;53.132;6.394;2022-07-01T11:20:24;4.03;;;0.90;;
52208;SDS011;38507;53.132;6.394;2022-07-01T11:22:51;5.75;;;0.85;;
52208;SDS011;38507;53.132;6.394;2022-07-01T11:25:18;5.15;;;1.00;;
52208;SDS011;38507;53.132;6.394;2022-07-01T11:27:45;3.53;;;1.17;;
52208;SDS011;38507;53.132;6.394;2022-07-01T11:30:13;5.45;;;0.98;;
52208;SDS011;38507;53.132;6.394;2022-07-01T11:32:40;5.85;;;1.15;;
52208;SDS011;38507;53.132;6.394;2022-07-01T11:35:14;4.00;;;1.00;;
52208;SDS011;38507;53.132;6.394;2022-07-01T11:38:04;5.00;;;1.25;;
52208;SDS011;38507;53.132;6.394;2022-07-01T11:40:49;11.15;;;1.85;;
52208;SDS011;38507;53.132;6.394;2022-07-01T11:43:21;4.75;;;1.58;;
52208;SDS011;38507;53.132;6.394;2022-07-01T11:45:52;2.80;;;1.10;;
52208;SDS011;38507;53.132;6.394;2022-07-01T11:48:34;7.10;;;1.65;;
52208;SDS011;38507;53.132;6.394;2022-07-01T11:51:01;6.22;;;1.23;;
52208;SDS011;38507;53.132;6.394;2022-07-01T11:53:30;5.65;;;1.10;;
52208;SDS011;38507;53.132;6.394;2022-07-01T11:55:56;6.05;;;1.10;;
52208;SDS011;38507;53.132;6.394;2022-07-01T11:58:23;6.90;;;1.17;;
52208;SDS011;38507;53.132;6.394;2022-07-01T12:00:49;5.40;;;1.25;;
52208;SDS011;38507;53.132;6.394;2022-07-01T12:03:30;4.05;;;0.98;;
52208;SDS011;38507;53.132;6.394;2022-07-01T12:05:56;4.60;;;1.23;;
52208;SDS011;38507;53.132;6.394;2022-07-01T12:08:23;4.15;;;0.88;;
52208;SDS011;38507;53.132;6.394;2022-07-01T12:10:48;5.10;;;0.80;;
52208;SDS011;38507;53.132;6.394;2022-07-01T12:13:24;8.25;;;1.00;;
52208;SDS011;38507;53.132;6.394;2022-07-01T12:15:50;3.80;;;0.65;;
52208;SDS011;38507;53.132;6.394;2022-07-01T12:18:16;19.20;;;1.35;;
52208;SDS011;38507;53.132;6.394;2022-07-01T12:20:54;2.05;;;0.57;;
52208;SDS011;38507;53.132;6.394;2022-07-01T12:23:20;4.28;;;0.80;;
52208;SDS011;38507;53.132;6.394;2022-07-01T12:25:47;4.85;;;0.50;;
52208;SDS011;38507;53.132;6.394;2022-07-01T12:28:30;3.35;;;0.60;;
52208;SDS011;38507;53.132;6.394;2022-07-01T12:31:07;5.13;;;0.60;;
52208;SDS011;38507;53.132;6.394;2022-07-01T12:33:34;4.25;;;0.70;;
52208;SDS011;38507;53.132;6.394;2022-07-01T12:36:05;3.63;;;0.57;;
52208;SDS011;38507;53.132;6.394;2022-07-01T12:38:32;6.15;;;0.80;;
52208;SDS011;38507;53.132;6.394;2022-07-01T12:40:59;4.85;;;1.40;;
52208;SDS011;38507;53.132;6.394;2022-07-01T12:43:25;4.95;;;1.00;;
52208;SDS011;38507;53.132;6.394;2022-07-01T12:46:00;5.63;;;0.95;;
52208;SDS011;38507;53.132;6.394;2022-07-01T12:48:26;3.53;;;0.55;;
52208;SDS011;38507;53.132;6.394;2022-07-01T12:50:53;8.85;;;0.60;;
52208;SDS011;38507;53.132;6.394;2022-07-01T12:53:23;3.67;;;0.77;;
52208;SDS011;38507;53.132;6.394;2022-07-01T12:55:53;5.47;;;0.80;;
52208;SDS011;38507;53.132;6.394;2022-07-01T12:58:24;7.00;;;0.73;;
52208;SDS011;38507;53.132;6.394;2022-07-01T13:00:54;4.65;;;0.70;;
52208;SDS011;38507;53.132;6.394;2022-07-01T13:03:25;5.13;;;1.23;;
52208;SDS011;38507;53.132;6.394;2022-07-01T13:05:52;5.28;;;0.70;;
52208;SDS011;38507;53.132;6.394;2022-07-01T13:08:19;2.83;;;0.50;;
52208;SDS011;38507;53.132;6.394;2022-07-01T13:10:45;6.18;;;1.05;;
52208;SDS011;38507;53.132;6.394;2022-07-01T13:13:12;4.43;;;0.70;;
52208;SDS011;38507;53.132;6.394;2022-07-01T13:15:38;5.03;;;0.80;;
52208;SDS011;38507;53.132;6.394;2022-07-01T13:18:04;3.95;;;0.60;;
52208;SDS011;38507;53.132;6.394;2022-07-01T13:20:30;3.92;;;0.70;;
52208;SDS011;38507;53.132;6.394;2022-07-01T13:22:56;3.97;;;0.65;;
52208;SDS011;38507;53.132;6.394;2022-07-01T13:25:22;3.40;;;0.88;;
52208;SDS011;38507;53.132;6.394;2022-07-01T13:27:48;3.78;;;0.60;;
52208;SDS011;38507;53.132;6.394;2022-07-01T13:30:16;4.50;;;0.50;;
52208;SDS011;38507;53.132;6.394;2022-07-01T13:32:43;4.38;;;0.60;;
52208;SDS011;38507;53.132;6.394;2022-07-01T13:35:09;4.55;;;0.57;;
52208;SDS011;38507;53.132;6.394;2022-07-01T13:37:36;2.70;;;0.43;;
52208;SDS011;38507;53.132;6.394;2022-07-01T13:40:02;1.83;;;0.57;;
52208;SDS011;38507;53.132;6.394;2022-07-01T13:42:28;3.15;;;0.45;;
52208;SDS011;38507;53.132;6.394;2022-07-01T13:44:54;3.80;;;0.60;;
52208;SDS011;38507;53.132;6.394;2022-07-01T13:47:19;2.17;;;0.50;;
52208;SDS011;38507;53.132;6.394;2022-07-01T13:49:46;5.10;;;0.50;;
52208;SDS011;38507;53.132;6.394;2022-07-01T13:52:11;4.40;;;0.88;;
52208;SDS011;38507;53.132;6.394;2022-07-01T13:54:37;3.63;;;0.60;;
52208;SDS011;38507;53.132;6.394;2022-07-01T13:57:03;5.03;;;1.02;;
52208;SDS011;38507;53.132;6.394;2022-07-01T13:59:29;2.60;;;0.47;;
52208;SDS011;38507;53.132;6.394;2022-07-01T14:01:55;5.45;;;0.70;;
52208;SDS011;38507;53.132;6.394;2022-07-01T14:04:22;5.57;;;0.75;;
52208;SDS011;38507;53.132;6.394;2022-07-01T14:06:48;3.60;;;0.50;;
52208;SDS011;38507;53.132;6.394;2022-07-01T14:09:14;6.00;;;0.70;;
52208;SDS011;38507;53.132;6.394;2022-07-01T14:11:39;5.82;;;0.82;;
52208;SDS011;38507;53.132;6.394;2022-07-01T14:14:05;5.93;;;0.60;;
52208;SDS011;38507;53.132;6.394;2022-07-01T14:16:30;4.68;;;1.05;;
52208;SDS011;38507;53.132;6.394;2022-07-01T14:18:56;3.22;;;0.60;;
52208;SDS011;38507;53.132;6.394;2022-07-01T14:21:22;4.93;;;0.90;;
52208;SDS011;38507;53.132;6.394;2022-07-01T14:23:49;5.13;;;0.60;;
52208;SDS011;38507;53.132;6.394;2022-07-01T14:26:15;4.88;;;0.85;;
52208;SDS011;38507;53.132;6.394;2022-07-01T14:28:41;6.68;;;0.93;;
52208;SDS011;38507;53.132;6.394;2022-07-01T14:31:06;3.85;;;0.77;;
52208;SDS011;38507;53.132;6.394;2022-07-01T14:33:32;5.20;;;1.17;;
52208;SDS011;38507;53.132;6.394;2022-07-01T14:35:58;4.50;;;1.02;;
52208;SDS011;38507;53.132;6.394;2022-07-01T14:38:24;5.22;;;0.70;;
52208;SDS011;38507;53.132;6.394;2022-07-01T14:40:49;3.33;;;1.08;;
52208;SDS011;38507;53.132;6.394;2022-07-01T14:43:15;5.25;;;0.70;;
52208;SDS011;38507;53.132;6.394;2022-07-01T14:45:41;7.40;;;1.00;;
52208;SDS011;38507;53.132;6.394;2022-07-01T14:48:07;5.38;;;0.85;;
52208;SDS011;38507;53.132;6.394;2022-07-01T14:50:33;4.43;;;0.77;;
52208;SDS011;38507;53.132;6.394;2022-07-01T14:52:59;5.53;;;0.85;;
52208;SDS011;38507;53.132;6.394;2022-07-01T14:55:26;4.95;;;0.93;;
52208;SDS011;38507;53.132;6.394;2022-07-01T14:57:54;6.70;;;1.20;;
52208;SDS011;38507;53.132;6.394;2022-07-01T15:00:20;7.47;;;1.02;;